Time;durP1;ratioP1;P1;durP2;ratioP2;P2;SDS_P1;SDS_P2;PMS_P1;PMS_P2;Temp;Humidity;BMP_temperature;BMP_pressure;BME280_temperature;BME280_humidity;BME280_pressure;Samples;Min_cycle;Max_cycle;Signal;HPM_P1;HPM_P2
2022/09/21 00:01:47;;;;;;;11.23;4.43;;;8.50;1.00;;;;;;5044089;28;20288;-71
2022/09/21 00:04:13;;;;;;;6.43;4.13;;;8.50;1.00;;;;;;5042239;28;20651;-72
2022/09/21 00:06:38;;;;;;;6.70;3.60;;;8.50;1.00;;;;;;5049012;28;20208;-73
2022/09/21 00:09:04;;;;;;;6.10;3.60;;;8.50;1.00;;;;;;5040257;28;20280;-72
2022/09/21 00:11:31;;;;;;;10.37;4.50;;;8.40;1.00;;;;;;5044507;28;20196;-73
2022/09/21 00:14:03;;;;;;;9.17;4.50;;;8.30;1.00;;;;;;5046413;28;20212;-73
2022/09/21 00:16:30;;;;;;;4.80;3.73;;;8.30;1.00;;;;;;5039227;28;20543;-72
2022/09/21 00:18:56;;;;;;;7.47;4.80;;;8.20;1.00;;;;;;5048732;28;20443;-72
2022/09/21 00:21:22;;;;;;;7.33;3.30;;;8.10;1.00;;;;;;5047870;28;20513;-72
2022/09/21 00:23:48;;;;;;;6.50;4.00;;;8.10;1.00;;;;;;5049174;28;20185;-72
2022/09/21 00:26:16;;;;;;;5.13;3.80;;;8.10;1.00;;;;;;5047141;28;20191;-72
2022/09/21 00:28:43;;;;;;;9.90;3.80;;;8.00;1.00;;;;;;5045040;28;20460;-73
2022/09/21 00:31:11;;;;;;;14.23;4.17;;;7.90;1.00;;;;;;5044539;28;20466;-72
2022/09/21 00:33:38;;;;;;;6.70;3.83;;;7.90;1.00;;;;;;5048472;28;20471;-72
2022/09/21 00:36:06;;;;;;;6.80;3.97;;;7.80;1.00;;;;;;5043946;28;20543;-72
2022/09/21 00:38:32;;;;;;;8.27;3.97;;;7.80;1.00;;;;;;5047770;28;20467;-72
2022/09/21 00:40:58;;;;;;;6.83;4.40;;;7.80;1.00;;;;;;5049836;28;20441;-72
2022/09/21 00:43:23;;;;;;;6.67;3.73;;;7.80;1.00;;;;;;5047709;28;20910;-72
2022/09/21 00:45:52;;;;;;;7.77;3.80;;;7.80;2.00;;;;;;5043563;28;20672;-73
2022/09/21 00:48:18;;;;;;;4.13;3.63;;;7.80;1.00;;;;;;5044845;28;20206;-72
2022/09/21 00:50:50;;;;;;;4.30;3.53;;;7.80;1.00;;;;;;5049221;28;20473;-73
2022/09/21 00:53:16;;;;;;;5.63;3.60;;;7.70;1.00;;;;;;5042210;28;20204;-73
2022/09/21 00:55:48;;;;;;;7.90;4.00;;;7.60;1.00;;;;;;5049322;28;20789;-72
2022/09/21 00:58:18;;;;;;;4.80;3.17;;;7.50;1.00;;;;;;5040479;28;20197;-73
2022/09/21 01:00:44;;;;;;;8.53;3.60;;;7.50;1.00;;;;;;5039837;28;20436;-73
2022/09/21 01:03:11;;;;;;;6.13;3.47;;;7.40;1.00;;;;;;5042804;28;20772;-72
2022/09/21 01:05:36;;;;;;;6.53;3.73;;;7.50;1.00;;;;;;5056114;28;20269;-72
2022/09/21 01:08:05;;;;;;;9.80;4.07;;;7.40;1.00;;;;;;5049127;28;21037;-73
2022/09/21 01:10:56;;;;;;;8.00;3.77;;;7.40;1.00;;;;;;5046977;28;20257;-72
2022/09/21 01:13:54;;;;;;;5.00;3.03;;;7.50;1.00;;;;;;5030375;28;20465;-73
2022/09/21 01:16:44;;;;;;;7.53;3.83;;;7.40;1.00;;;;;;5040160;28;20449;-72
2022/09/21 01:19:30;;;;;;;6.53;3.70;;;7.40;1.00;;;;;;5042223;28;20494;-72
2022/09/21 01:22:06;;;;;;;6.60;3.93;;;7.40;1.00;;;;;;5047340;28;20408;-74
2022/09/21 01:25:07;;;;;;;9.53;3.70;;;7.40;1.00;;;;;;5045287;28;20440;-72
2022/09/21 01:28:05;;;;;;;4.63;3.30;;;7.50;1.00;;;;;;5037566;28;20474;-71
2022/09/21 01:30:34;;;;;;;6.40;3.80;;;7.50;1.00;;;;;;5044077;28;20493;-72
2022/09/21 01:33:27;;;;;;;8.80;4.27;;;7.40;1.00;;;;;;5042178;28;20546;-72
2022/09/21 01:36:02;;;;;;;8.30;3.70;;;7.40;1.00;;;;;;5037373;28;20428;-72
2022/09/21 01:38:34;;;;;;;5.90;3.67;;;7.50;1.00;;;;;;5042724;28;20471;-71
2022/09/21 01:41:03;;;;;;;6.83;3.97;;;7.40;1.00;;;;;;5041174;28;20418;-72
2022/09/21 01:43:39;;;;;;;6.03;3.87;;;7.40;1.00;;;;;;5042266;28;20653;-72
2022/09/21 01:46:12;;;;;;;5.10;3.70;;;7.40;1.00;;;;;;5043979;28;20552;-73
2022/09/21 01:48:40;;;;;;;4.90;3.40;;;7.50;1.00;;;;;;5041926;28;20443;-72
2022/09/21 01:51:08;;;;;;;6.80;3.50;;;7.40;1.00;;;;;;5039291;28;20424;-73
2022/09/21 01:53:42;;;;;;;13.23;4.13;;;7.40;1.00;;;;;;5036784;28;20575;-72
2022/09/21 01:56:19;;;;;;;7.47;3.70;;;7.40;1.00;;;;;;5038390;28;20424;-72
2022/09/21 01:58:49;;;;;;;5.20;3.70;;;7.30;1.00;;;;;;5031717;28;20544;-72
2022/09/21 02:01:18;;;;;;;4.93;3.80;;;7.20;1.00;;;;;;5046395;28;20435;-72
2022/09/21 02:03:56;;;;;;;8.00;3.67;;;7.20;1.00;;;;;;5041863;28;20442;-72
2022/09/21 02:06:25;;;;;;;18.90;4.43;;;7.20;1.00;;;;;;5043995;28;20432;-73
2022/09/21 02:08:51;;;;;;;7.13;3.97;;;7.20;1.00;;;;;;5043090;28;20923;-72
2022/09/21 02:11:17;;;;;;;7.70;3.53;;;7.10;1.00;;;;;;5046219;28;20562;-72
2022/09/21 02:13:45;;;;;;;6.50;4.10;;;7.10;1.00;;;;;;5042509;28;20569;-73
2022/09/21 02:16:42;;;;;;;4.53;3.70;;;7.00;1.00;;;;;;5055124;28;20173;-72
2022/09/21 02:19:30;;;;;;;9.33;3.97;;;7.00;1.00;;;;;;5035919;28;20898;-71
2022/09/21 02:22:14;;;;;;;8.80;4.30;;;7.00;1.00;;;;;;5046361;28;20459;-73
2022/09/21 02:24:48;;;;;;;5.97;3.83;;;7.00;1.00;;;;;;5043730;28;20443;-71
2022/09/21 02:27:34;;;;;;;4.57;3.53;;;7.00;1.00;;;;;;5039837;28;20466;-72
2022/09/21 02:30:07;;;;;;;4.43;3.50;;;7.00;1.00;;;;;;5041524;28;20541;-72
2022/09/21 02:32:45;;;;;;;3.67;3.27;;;6.80;1.00;;;;;;5041758;28;20403;-73
2022/09/21 02:35:20;;;;;;;8.13;5.30;;;7.00;1.00;;;;;;5039600;28;20437;-73
2022/09/21 02:37:55;;;;;;;5.60;4.10;;;7.00;1.00;;;;;;5043718;28;20566;-72
2022/09/21 02:40:34;;;;;;;7.80;4.30;;;7.00;1.00;;;;;;5037114;28;20797;-72
2022/09/21 02:43:11;;;;;;;6.67;4.50;;;6.90;1.00;;;;;;5046616;28;20461;-73
2022/09/21 02:46:08;;;;;;;7.73;4.50;;;6.90;1.00;;;;;;5043196;28;20427;-72
2022/09/21 02:48:38;;;;;;;8.20;4.27;;;6.90;1.00;;;;;;5043098;28;20566;-73
2022/09/21 02:51:12;;;;;;;8.53;4.37;;;7.00;1.00;;;;;;5039879;28;20439;-72
2022/09/21 02:53:40;;;;;;;11.40;3.87;;;6.70;1.00;;;;;;5044004;28;20455;-73
2022/09/21 02:56:08;;;;;;;4.60;3.67;;;6.70;1.00;;;;;;5052819;28;20411;-73
2022/09/21 02:58:37;;;;;;;4.67;3.50;;;6.70;1.00;;;;;;5036676;28;20527;-72
2022/09/21 03:01:06;;;;;;;4.97;3.10;;;6.70;1.00;;;;;;5035256;28;20451;-72
2022/09/21 03:03:31;;;;;;;7.60;3.97;;;6.60;1.00;;;;;;5050551;28;20580;-72
2022/09/21 03:05:57;;;;;;;7.33;3.73;;;6.60;1.00;;;;;;5047394;28;20983;-73
2022/09/21 03:08:23;;;;;;;4.03;3.20;;;6.50;1.00;;;;;;5038044;28;20198;-73
2022/09/21 03:10:49;;;;;;;3.83;3.43;;;6.50;1.00;;;;;;5050907;28;20172;-72
2022/09/21 03:13:15;;;;;;;4.73;3.30;;;6.40;1.00;;;;;;5041819;28;20293;-72
2022/09/21 03:15:41;;;;;;;7.43;3.30;;;6.30;1.00;;;;;;5060085;28;20883;-72
2022/09/21 03:18:10;;;;;;;6.47;3.77;;;6.40;1.00;;;;;;5045576;28;20455;-72
2022/09/21 03:20:38;;;;;;;14.40;5.27;;;6.30;1.00;;;;;;5047919;28;20619;-72
2022/09/21 03:23:04;;;;;;;6.20;4.13;;;6.30;1.00;;;;;;5048433;28;20899;-72
2022/09/21 03:25:30;;;;;;;6.77;3.50;;;6.40;1.00;;;;;;5047949;28;20468;-72
2022/09/21 03:27:56;;;;;;;7.67;4.27;;;6.40;1.00;;;;;;5049051;28;20225;-72
2022/09/21 03:30:24;;;;;;;14.23;4.43;;;6.40;1.00;;;;;;5044585;28;20938;-73
2022/09/21 03:32:54;;;;;;;7.60;3.80;;;6.40;1.00;;;;;;5048349;28;20503;-72
2022/09/21 03:35:21;;;;;;;5.27;4.00;;;6.40;1.00;;;;;;5045053;28;20490;-71
2022/09/21 03:37:48;;;;;;;7.10;4.00;;;6.30;1.00;;;;;;5042523;28;20451;-73
2022/09/21 03:40:15;;;;;;;5.30;4.17;;;6.40;1.00;;;;;;5043531;28;20522;-72
2022/09/21 03:42:41;;;;;;;6.17;4.20;;;6.30;1.00;;;;;;5047816;28;20550;-73
2022/09/21 03:45:08;;;;;;;9.10;4.03;;;6.30;1.00;;;;;;5049920;28;20431;-73
2022/09/21 03:47:34;;;;;;;6.07;3.93;;;6.30;1.00;;;;;;5043906;28;20448;-72
2022/09/21 03:50:00;;;;;;;6.40;3.93;;;6.30;1.00;;;;;;5044430;28;20427;-72
2022/09/21 03:52:25;;;;;;;7.33;4.10;;;6.30;1.00;;;;;;5045824;28;20185;-73
2022/09/21 03:54:51;;;;;;;16.00;3.97;;;6.30;1.00;;;;;;5046868;28;20225;-72
2022/09/21 03:57:16;;;;;;;5.07;3.80;;;6.30;1.00;;;;;;5050244;28;20205;-73
2022/09/21 03:59:42;;;;;;;6.33;3.93;;;6.30;1.00;;;;;;5052743;28;20441;-72
2022/09/21 04:02:08;;;;;;;6.30;3.93;;;6.30;1.00;;;;;;5070290;28;20207;-73
2022/09/21 04:04:33;;;;;;;4.63;4.07;;;6.30;1.00;;;;;;5045100;28;20210;-72
2022/09/21 04:06:59;;;;;;;6.77;4.67;;;6.30;1.00;;;;;;5029189;28;20221;-73
2022/09/21 04:09:25;;;;;;;5.07;3.80;;;6.30;1.00;;;;;;5031411;28;20589;-72
2022/09/21 04:11:52;;;;;;;6.70;4.43;;;6.30;1.00;;;;;;5047864;28;20261;-73
2022/09/21 04:14:17;;;;;;;6.37;4.37;;;6.30;1.00;;;;;;5049771;28;20261;-72
2022/09/21 04:16:43;;;;;;;6.97;4.30;;;6.30;1.00;;;;;;5062287;28;20435;-73
2022/09/21 04:19:09;;;;;;;6.23;4.10;;;6.30;1.00;;;;;;5071244;28;20184;-73
2022/09/21 04:21:34;;;;;;;7.27;4.10;;;6.30;1.00;;;;;;5045741;28;20269;-72
2022/09/21 04:24:00;;;;;;;6.90;3.87;;;6.20;1.00;;;;;;5050311;28;20177;-73
2022/09/21 04:26:31;;;;;;;8.43;4.67;;;6.20;1.00;;;;;;5044637;28;20181;-72
2022/09/21 04:28:58;;;;;;;10.13;4.80;;;6.30;1.00;;;;;;5049945;28;20811;-73
2022/09/21 04:31:24;;;;;;;8.80;4.73;;;6.20;1.00;;;;;;5045092;28;20929;-72
2022/09/21 04:33:52;;;;;;;13.30;4.97;;;6.20;1.20;;;;;;5045546;28;20455;-73
2022/09/21 04:36:18;;;;;;;9.40;4.40;;;6.20;1.10;;;;;;5042325;28;20551;-72
2022/09/21 04:38:44;;;;;;;5.80;3.80;;;6.10;1.00;;;;;;5046359;28;20416;-72
2022/09/21 04:41:10;;;;;;;9.43;4.10;;;6.10;1.00;;;;;;5047104;28;20526;-72
2022/09/21 04:43:36;;;;;;;4.57;3.63;;;6.00;1.00;;;;;;5047575;28;20510;-73
2022/09/21 04:46:11;;;;;;;11.17;4.07;;;5.90;1.00;;;;;;5042234;28;20197;-72
2022/09/21 04:48:37;;;;;;;6.87;4.07;;;5.90;1.00;;;;;;5043963;28;20185;-72
2022/09/21 04:51:05;;;;;;;5.30;3.80;;;5.80;1.00;;;;;;5042250;28;20504;-72
2022/09/21 04:53:30;;;;;;;5.40;3.53;;;5.70;1.00;;;;;;5047633;28;20475;-72
2022/09/21 04:55:56;;;;;;;7.50;4.10;;;5.70;1.00;;;;;;5030604;28;20428;-72
2022/09/21 04:58:22;;;;;;;6.50;4.23;;;5.70;1.00;;;;;;5037874;28;20682;-72
2022/09/21 05:00:50;;;;;;;4.80;3.73;;;5.60;1.00;;;;;;5044370;28;20220;-72
2022/09/21 05:03:16;;;;;;;10.43;4.07;;;5.60;1.00;;;;;;5041324;28;20427;-72
2022/09/21 05:05:49;;;;;;;7.50;4.37;;;5.60;1.00;;;;;;5048206;28;20439;-73
2022/09/21 05:08:15;;;;;;;6.93;5.80;;;5.60;1.00;;;;;;5047151;28;20443;-73
2022/09/21 05:10:41;;;;;;;6.93;4.67;;;5.60;1.00;;;;;;5049912;28;20419;-73
2022/09/21 05:13:07;;;;;;;5.90;4.13;;;5.30;1.00;;;;;;5042378;28;20493;-71
2022/09/21 05:15:32;;;;;;;7.73;4.20;;;5.60;1.00;;;;;;5044417;28;20432;-72
2022/09/21 05:17:58;;;;;;;5.77;3.97;;;5.80;1.00;;;;;;5044970;28;20225;-73
2022/09/21 05:20:23;;;;;;;7.93;4.20;;;5.60;1.00;;;;;;5050043;28;20173;-73
2022/09/21 05:22:49;;;;;;;17.73;3.67;;;5.70;1.00;;;;;;5047061;28;20251;-73
2022/09/21 05:25:14;;;;;;;8.77;5.80;;;5.80;1.00;;;;;;5045493;28;20173;-73
2022/09/21 05:27:40;;;;;;;10.80;4.57;;;5.60;1.00;;;;;;5048749;28;20216;-73
2022/09/21 05:30:07;;;;;;;9.83;5.70;;;5.70;1.00;;;;;;5046102;28;20195;-71
2022/09/21 05:32:52;;;;;;;8.03;5.30;;;5.70;1.00;;;;;;5044662;28;20166;-73
2022/09/21 05:35:26;;;;;;;17.37;8.40;;;5.70;1.00;;;;;;5037310;28;20814;-72
2022/09/21 05:38:15;;;;;;;17.60;8.53;;;5.70;1.00;;;;;;5042875;28;20815;-73
2022/09/21 05:40:41;;;;;;;14.20;6.20;;;5.90;1.00;;;;;;5036314;28;20420;-73
2022/09/21 05:43:09;;;;;;;11.10;6.23;;;5.80;1.00;;;;;;5046849;28;20411;-73
2022/09/21 05:45:38;;;;;;;10.50;5.67;;;5.90;1.00;;;;;;5046381;28;20538;-73
2022/09/21 05:48:31;;;;;;;10.63;5.30;;;5.90;1.00;;;;;;5048693;28;20428;-73
2022/09/21 05:51:08;;;;;;;10.60;4.97;;;6.10;1.00;;;;;;5042666;28;20463;-73
2022/09/21 05:53:53;;;;;;;10.10;5.03;;;6.20;1.00;;;;;;5046093;28;20451;-72
2022/09/21 05:56:57;;;;;;;8.07;4.70;;;6.50;1.00;;;;;;5034485;28;20850;-73
2022/09/21 05:59:47;;;;;;;22.38;7.20;;;6.30;1.00;;;;;;5044156;28;20841;-73
2022/09/21 06:02:43;;;;;;;12.43;8.00;;;6.40;1.00;;;;;;5044716;28;20215;-73
2022/09/21 06:05:13;;;;;;;12.63;7.30;;;6.50;1.00;;;;;;5030364;28;20452;-72
2022/09/21 06:07:40;;;;;;;12.30;6.77;;;6.60;1.00;;;;;;5040086;28;20452;-73
2022/09/21 06:10:07;;;;;;;14.20;7.77;;;6.70;1.00;;;;;;5045847;28;20458;-73
2022/09/21 06:12:32;;;;;;;8.13;5.80;;;7.10;1.10;;;;;;5042525;28;20802;-73
2022/09/21 06:14:58;;;;;;;9.13;6.00;;;7.90;1.00;;;;;;5042224;28;20464;-74
2022/09/21 06:17:26;;;;;;;10.57;6.30;;;8.80;1.00;;;;;;5038199;28;20585;-72
2022/09/21 06:19:52;;;;;;;9.07;5.67;;;9.80;1.00;;;;;;5044030;28;20193;-77
2022/09/21 06:22:17;;;;;;;9.13;5.53;;;10.40;1.00;;;;;;5032916;28;21351;-76
2022/09/21 06:24:43;;;;;;;6.03;5.00;;;11.10;1.00;;;;;;5039765;28;20192;-76
2022/09/21 06:27:08;;;;;;;9.70;5.40;;;11.50;1.00;;;;;;5037655;28;20742;-76
2022/09/21 06:29:34;;;;;;;8.70;5.67;;;11.80;1.00;;;;;;5031177;28;20189;-77
2022/09/21 06:32:01;;;;;;;6.50;5.17;;;11.60;1.00;;;;;;5038134;28;20181;-75
2022/09/21 06:34:27;;;;;;;8.13;5.30;;;11.40;1.00;;;;;;5045505;28;20469;-77
2022/09/21 06:36:52;;;;;;;5.90;5.13;;;11.30;1.00;;;;;;5049837;28;20574;-76
2022/09/21 06:39:18;;;;;;;7.90;5.63;;;11.20;1.00;;;;;;5041373;28;20230;-74
2022/09/21 06:41:43;;;;;;;7.50;5.40;;;11.50;1.00;;;;;;5045246;28;20187;-74
2022/09/21 06:44:09;;;;;;;7.50;5.20;;;12.20;1.00;;;;;;5039163;28;20234;-75
2022/09/21 06:46:34;;;;;;;8.93;5.30;;;12.50;1.00;;;;;;5039213;28;20198;-75
2022/09/21 06:49:00;;;;;;;6.90;5.40;;;12.20;1.00;;;;;;5045535;28;20231;-74
2022/09/21 06:51:26;;;;;;;7.77;5.53;;;11.80;1.00;;;;;;5040399;28;20476;-74
2022/09/21 06:53:55;;;;;;;6.97;5.80;;;11.60;1.00;;;;;;5038165;28;20193;-72
2022/09/21 06:56:21;;;;;;;7.90;5.93;;;10.90;1.00;;;;;;5036098;28;20173;-73
2022/09/21 06:58:46;;;;;;;8.27;6.27;;;10.90;1.00;;;;;;5042758;28;20433;-74
2022/09/21 07:01:13;;;;;;;8.97;6.50;;;10.70;1.00;;;;;;5041544;28;20241;-74
2022/09/21 07:03:40;;;;;;;10.43;5.73;;;10.80;1.00;;;;;;5036462;28;20247;-74
2022/09/21 07:06:07;;;;;;;10.83;5.60;;;10.90;1.00;;;;;;5044994;28;20423;-74
2022/09/21 07:08:34;;;;;;;8.67;6.97;;;11.20;1.00;;;;;;5043359;28;21019;-74
2022/09/21 07:11:01;;;;;;;11.10;6.00;;;11.50;1.00;;;;;;5037469;28;20514;-73
2022/09/21 07:13:27;;;;;;;20.00;6.63;;;12.00;1.00;;;;;;5036441;28;20454;-73
2022/09/21 07:15:53;;;;;;;10.10;6.37;;;12.60;1.00;;;;;;5048644;28;20466;-74
2022/09/21 07:18:20;;;;;;;11.30;7.13;;;13.30;1.00;;;;;;5039861;28;20953;-74
2022/09/21 07:20:47;;;;;;;11.30;6.40;;;13.80;1.00;;;;;;5038298;28;20181;-73
2022/09/21 07:23:15;;;;;;;15.83;7.97;;;14.50;1.00;;;;;;5043854;28;20414;-74
2022/09/21 07:25:42;;;;;;;11.07;8.40;;;15.00;1.00;;;;;;5041362;28;20423;-74
2022/09/21 07:28:08;;;;;;;12.20;9.23;;;15.50;1.00;;;;;;5044430;28;20450;-74
2022/09/21 07:30:37;;;;;;;14.50;8.80;;;15.90;1.00;;;;;;5043429;28;20783;-75
2022/09/21 07:33:03;;;;;;;11.30;8.80;;;16.40;1.00;;;;;;5045880;28;20726;-74
2022/09/21 07:35:28;;;;;;;10.13;7.90;;;16.90;1.00;;;;;;5043960;28;20833;-74
2022/09/21 07:37:57;;;;;;;10.20;7.73;;;17.60;1.00;;;;;;5050947;28;20447;-74
2022/09/21 07:40:22;;;;;;;12.90;7.63;;;18.50;1.00;;;;;;5042520;28;20181;-74
2022/09/21 07:42:48;;;;;;;10.37;6.87;;;19.20;1.00;;;;;;5042468;28;20955;-74
2022/09/21 07:45:14;;;;;;;11.37;7.03;;;19.90;1.00;;;;;;5040441;28;20242;-74
2022/09/21 07:47:39;;;;;;;12.80;7.27;;;20.50;1.00;;;;;;5046279;28;20211;-75
2022/09/21 07:50:05;;;;;;;8.80;7.10;;;21.00;1.00;;;;;;5045575;28;20184;-75
2022/09/21 07:52:31;;;;;;;8.50;7.13;;;20.90;1.00;;;;;;5043392;28;20255;-75
2022/09/21 07:54:56;;;;;;;8.90;6.87;;;20.70;1.00;;;;;;5044194;28;20208;-75
2022/09/21 08:00:11;;;;;;;10.27;6.73;;;21.50;1.00;;;;;;5040104;28;20181;-74
2022/09/21 08:02:36;;;;;;;7.30;5.97;;;22.00;1.00;;;;;;5050315;28;20411;-75
2022/09/21 08:05:02;;;;;;;8.47;5.60;;;22.40;1.00;;;;;;5035371;28;20796;-76
2022/09/21 08:07:28;;;;;;;8.70;5.83;;;22.60;1.00;;;;;;5047420;28;20235;-75
2022/09/21 08:09:53;;;;;;;7.70;6.23;;;23.10;1.00;;;;;;5045797;28;20640;-75
2022/09/21 08:12:19;;;;;;;8.90;6.17;;;23.90;1.00;;;;;;5039239;28;20333;-74
2022/09/21 08:14:46;;;;;;;8.97;6.17;;;24.40;1.00;;;;;;5051473;28;20212;-75
2022/09/21 08:17:12;;;;;;;8.47;5.93;;;24.70;1.00;;;;;;5046707;28;20196;-75
2022/09/21 08:19:37;;;;;;;11.13;6.40;;;24.70;1.00;;;;;;5053988;28;20259;-75
2022/09/21 08:22:03;;;;;;;9.53;5.90;;;25.00;1.00;;;;;;5044193;28;20640;-75
2022/09/21 08:24:30;;;;;;;8.10;5.93;;;25.30;1.00;;;;;;5036848;28;20185;-75
2022/09/21 08:26:56;;;;;;;8.70;6.03;;;25.20;1.00;;;;;;5047168;28;20184;-75
2022/09/21 08:29:24;;;;;;;7.33;5.87;;;25.90;1.00;;;;;;5043534;28;20188;-76
2022/09/21 08:31:49;;;;;;;8.83;5.93;;;26.70;1.00;;;;;;5042526;28;20176;-76
2022/09/21 08:34:15;;;;;;;8.30;5.70;;;27.30;1.00;;;;;;5048627;28;20292;-76
2022/09/21 08:36:41;;;;;;;9.75;5.97;;;27.60;1.00;;;;;;5040479;28;20271;-76
2022/09/21 08:39:08;;;;;;;6.40;4.83;;;27.70;1.00;;;;;;5044042;28;20185;-75
2022/09/21 08:42:03;;;;;;;6.53;4.22;;;27.80;1.00;;;;;;5049552;28;20184;-76
2022/09/21 08:44:40;;;;;;;6.70;4.57;;;28.00;1.00;;;;;;5038352;28;20617;-76
2022/09/21 08:47:10;;;;;;;7.68;4.93;;;28.30;1.00;;;;;;5035053;28;20216;-75
2022/09/21 08:49:39;;;;;;;5.53;4.60;;;28.80;1.00;;;;;;5043607;28;20620;-77
2022/09/21 08:52:11;;;;;;;6.03;2.85;;;29.50;1.00;;;;;;5044242;28;20669;-75
2022/09/21 08:54:46;;;;;;;4.38;3.17;;;29.60;1.00;;;;;;5040857;28;20211;-76
2022/09/21 08:57:16;;;;;;;4.75;2.10;;;29.90;1.00;;;;;;5034825;28;20231;-76
2022/09/21 08:59:47;;;;;;;5.53;2.20;;;29.70;1.00;;;;;;5045273;28;20578;-76
2022/09/21 09:02:31;;;;;;;4.55;2.40;;;29.90;1.00;;;;;;5039843;28;20660;-75
2022/09/21 09:05:18;;;;;;;5.30;2.40;;;30.40;1.00;;;;;;5046319;28;20180;-75
2022/09/21 09:08:03;;;;;;;3.20;1.60;;;30.80;1.00;;;;;;5040865;28;20301;-75
2022/09/21 09:10:34;;;;;;;3.55;1.67;;;30.00;1.00;;;;;;5044127;28;20168;-75
2022/09/21 09:13:24;;;;;;;3.22;1.40;;;29.70;1.00;;;;;;5037882;28;20235;-75
2022/09/21 09:16:13;;;;;;;3.05;1.40;;;29.30;1.00;;;;;;5038336;28;20178;-75
2022/09/21 09:19:09;;;;;;;3.25;1.20;;;29.60;1.00;;;;;;5042646;28;20180;-75
2022/09/21 09:21:39;;;;;;;3.95;1.70;;;29.70;1.00;;;;;;5048132;28;20697;-75
2022/09/21 09:24:08;;;;;;;4.63;1.50;;;29.50;1.00;;;;;;5030589;28;20181;-75
2022/09/21 09:26:46;;;;;;;3.92;1.60;;;29.70;1.00;;;;;;5045899;28;20216;-75
2022/09/21 09:30:00;;;;;;;3.95;1.55;;;29.50;1.00;;;;;;5034086;28;20234;-75
2022/09/21 09:32:45;;;;;;;3.28;1.50;;;29.70;1.00;;;;;;5020964;28;20209;-75
2022/09/21 09:35:39;;;;;;;3.75;1.63;;;30.00;1.00;;;;;;5020513;28;20350;-76
2022/09/21 09:38:27;;;;;;;2.58;1.48;;;30.20;1.00;;;;;;5031151;28;20556;-75
2022/09/21 09:41:04;;;;;;;4.45;1.65;;;30.00;1.00;;;;;;5035519;28;20187;-74
2022/09/21 09:44:05;;;;;;;2.38;1.45;;;30.80;1.00;;;;;;5045808;28;20349;-75
2022/09/21 09:46:36;;;;;;;2.88;1.60;;;31.50;1.00;;;;;;5034012;28;20890;-76
2022/09/21 09:49:23;;;;;;;3.22;1.80;;;31.00;1.00;;;;;;5038817;28;20275;-77
2022/09/21 09:51:50;;;;;;;3.35;1.73;;;31.00;1.00;;;;;;5052774;28;20187;-76
2022/09/21 09:54:17;;;;;;;3.42;1.73;;;31.30;1.00;;;;;;5049164;28;20216;-75
2022/09/21 09:56:44;;;;;;;2.90;1.58;;;32.00;1.00;;;;;;5042101;28;20564;-76
2022/09/21 09:59:35;;;;;;;5.85;1.70;;;32.20;1.00;;;;;;5036591;28;20184;-76
2022/09/21 10:02:05;;;;;;;3.58;1.65;;;32.30;1.00;;;;;;5039306;28;20238;-76
2022/09/21 10:04:32;;;;;;;2.60;1.60;;;32.00;1.00;;;;;;5034431;28;20189;-75
2022/09/21 10:06:57;;;;;;;2.63;1.60;;;31.50;1.00;;;;;;5042693;28;20284;-76
2022/09/21 10:09:32;;;;;;;3.30;1.38;;;31.10;1.00;;;;;;5036494;28;20314;-76
2022/09/21 10:12:14;;;;;;;3.15;1.60;;;30.40;1.00;;;;;;5047165;28;20180;-76
2022/09/21 10:14:48;;;;;;;3.00;1.50;;;30.30;1.00;;;;;;5045129;28;20211;-76
2022/09/21 10:17:17;;;;;;;3.15;1.30;;;30.90;1.00;;;;;;5045065;28;20214;-75
2022/09/21 10:19:43;;;;;;;3.88;1.50;;;31.70;1.00;;;;;;5047932;28;20543;-76
2022/09/21 10:22:15;;;;;;;3.03;1.42;;;32.20;1.00;;;;;;5045431;28;20285;-75
2022/09/21 10:24:48;;;;;;;2.47;1.35;;;32.80;1.00;;;;;;5038648;28;20184;-76
2022/09/21 10:27:16;;;;;;;3.30;1.45;;;33.00;1.00;;;;;;5043118;28;20208;-77
2022/09/21 10:29:44;;;;;;;2.85;1.40;;;33.40;1.00;;;;;;5045128;28;20712;-75
2022/09/21 10:32:13;;;;;;;3.00;1.52;;;32.90;1.00;;;;;;5042821;28;20176;-74
2022/09/21 10:34:40;;;;;;;3.88;1.70;;;32.00;1.00;;;;;;5042269;28;20204;-76
2022/09/21 10:37:25;;;;;;;3.35;1.70;;;31.50;1.00;;;;;;5048870;28;20961;-76
2022/09/21 10:39:51;;;;;;;2.30;1.35;;;31.70;1.00;;;;;;5039730;28;20623;-75
2022/09/21 10:42:18;;;;;;;3.60;1.98;;;32.10;1.00;;;;;;5047936;28;20176;-76
2022/09/21 10:44:49;;;;;;;3.42;1.40;;;32.50;1.00;;;;;;5037236;28;20189;-75
2022/09/21 10:47:35;;;;;;;2.80;1.40;;;32.80;1.00;;;;;;5050687;28;20188;-76
2022/09/21 10:50:06;;;;;;;2.85;1.30;;;33.20;1.00;;;;;;5037453;28;20535;-76
2022/09/21 10:52:41;;;;;;;3.83;1.50;;;33.80;1.00;;;;;;5040238;28;20172;-75
2022/09/21 10:55:17;;;;;;;2.25;1.27;;;34.40;1.00;;;;;;5032973;28;20204;-75
2022/09/21 10:57:44;;;;;;;3.22;1.58;;;34.90;1.00;;;;;;5044415;28;20192;-75
2022/09/21 11:00:28;;;;;;;2.78;1.20;;;36.10;1.00;;;;;;5040494;28;20200;-76
2022/09/21 11:02:55;;;;;;;2.88;1.52;;;37.00;1.00;;;;;;5038693;28;20169;-77
2022/09/21 11:05:26;;;;;;;3.80;1.50;;;37.00;1.00;;;;;;5036860;28;20231;-76
2022/09/21 11:07:57;;;;;;;3.33;1.73;;;37.40;1.00;;;;;;5046328;28;20636;-76
2022/09/21 11:10:56;;;;;;;3.70;1.90;;;37.70;1.00;;;;;;5048866;28;20173;-75
2022/09/21 11:13:45;;;;;;;3.53;1.75;;;37.10;1.00;;;;;;5039280;28;20206;-75
2022/09/21 11:16:32;;;;;;;4.43;1.70;;;37.20;1.00;;;;;;5046109;28;20177;-76
2022/09/21 11:19:19;;;;;;;4.32;1.75;;;37.90;1.00;;;;;;5052297;28;20655;-75
2022/09/21 11:22:15;;;;;;;3.15;1.70;;;38.60;1.00;;;;;;5045923;28;20697;-76
2022/09/21 11:24:49;;;;;;;3.67;1.70;;;38.90;1.00;;;;;;5048843;28;20196;-76
2022/09/21 11:27:31;;;;;;;5.10;1.80;;;39.20;1.00;;;;;;5051875;28;20219;-75
2022/09/21 11:30:13;;;;;;;3.83;1.75;;;39.40;1.00;;;;;;5048459;28;20184;-75
2022/09/21 11:33:12;;;;;;;3.03;1.88;;;39.00;1.00;;;;;;5048412;28;20208;-75
2022/09/21 11:36:00;;;;;;;3.58;1.90;;;39.40;1.00;;;;;;5039061;28;20551;-76
2022/09/21 11:38:45;;;;;;;6.78;1.98;;;39.30;1.00;;;;;;5039783;28;20239;-75
2022/09/21 11:41:36;;;;;;;4.30;1.77;;;38.70;1.00;;;;;;5045644;28;20631;-76
2022/09/21 11:44:47;;;;;;;3.00;1.55;;;38.40;1.00;;;;;;5042974;28;20217;-75
2022/09/21 11:47:27;;;;;;;3.50;1.60;;;38.70;1.00;;;;;;5034265;28;20207;-75
2022/09/21 11:50:03;;;;;;;2.40;1.30;;;39.20;1.00;;;;;;5033888;28;20200;-76
2022/09/21 11:52:47;;;;;;;2.88;1.50;;;39.80;1.00;;;;;;5039756;28;20168;-76
2022/09/21 11:55:35;;;;;;;2.20;1.10;;;40.50;1.00;;;;;;5037241;28;20212;-76
2022/09/21 11:58:39;;;;;;;2.65;1.23;;;40.60;1.00;;;;;;5051354;28;20189;-77
2022/09/21 12:01:16;;;;;;;3.03;1.30;;;40.60;1.00;;;;;;5037531;28;20184;-77
2022/09/21 12:04:03;;;;;;;2.67;1.20;;;41.10;1.00;;;;;;5042681;28;20503;-76
2022/09/21 12:06:35;;;;;;;2.53;1.20;;;41.00;1.00;;;;;;5040202;28;20169;-77
2022/09/21 12:09:21;;;;;;;2.85;1.23;;;41.00;1.00;;;;;;5031004;28;20197;-75
2022/09/21 12:12:19;;;;;;;3.00;1.15;;;40.00;1.00;;;;;;5046870;28;20654;-78
2022/09/21 12:14:54;;;;;;;4.30;1.10;;;37.70;1.00;;;;;;5040815;28;20219;-76
2022/09/21 12:17:33;;;;;;;4.85;1.30;;;36.10;1.00;;;;;;5041475;28;20584;-76
2022/09/21 12:20:11;;;;;;;2.92;1.30;;;34.30;1.00;;;;;;5043888;28;20259;-75
2022/09/21 12:22:43;;;;;;;3.50;1.45;;;31.80;1.00;;;;;;5043572;28;20176;-75
2022/09/21 12:25:31;;;;;;;3.63;1.40;;;30.40;1.00;;;;;;5047470;28;20187;-74
2022/09/21 12:28:04;;;;;;;5.78;1.90;;;32.20;1.00;;;;;;5040482;28;20208;-75
2022/09/21 12:30:32;;;;;;;3.08;1.17;;;34.40;1.00;;;;;;5031304;28;20181;-75
2022/09/21 12:33:04;;;;;;;3.25;1.50;;;35.10;1.00;;;;;;5032661;28;20295;-76
2022/09/21 12:35:45;;;;;;;2.75;1.08;;;34.90;1.00;;;;;;5043195;28;20470;-75
2022/09/21 12:38:31;;;;;;;5.05;1.20;;;35.50;1.00;;;;;;5043059;28;20562;-75
2022/09/21 12:41:08;;;;;;;2.38;1.10;;;35.10;1.00;;;;;;5045523;28;20292;-75
2022/09/21 12:43:42;;;;;;;2.88;1.10;;;34.80;1.00;;;;;;5042512;28;20213;-76
2022/09/21 12:46:24;;;;;;;2.50;1.08;;;34.20;1.00;;;;;;5038021;28;20180;-77
2022/09/21 12:48:49;;;;;;;3.35;1.42;;;31.60;1.00;;;;;;5034470;28;20649;-76
2022/09/21 12:51:19;;;;;;;3.83;1.50;;;30.30;1.00;;;;;;5044310;28;20184;-75
2022/09/21 12:53:47;;;;;;;2.60;1.55;;;32.20;1.00;;;;;;5049917;28;20283;-75
2022/09/21 12:56:30;;;;;;;1.88;1.00;;;33.50;1.00;;;;;;5045924;28;20169;-75
2022/09/21 12:59:08;;;;;;;2.70;1.20;;;31.60;1.00;;;;;;5039194;28;20256;-76
2022/09/21 13:01:56;;;;;;;2.92;1.50;;;30.60;1.00;;;;;;5030686;28;20172;-74
2022/09/21 13:04:44;;;;;;;2.27;1.30;;;28.10;1.00;;;;;;5039704;28;20554;-75
2022/09/21 13:07:34;;;;;;;2.50;1.20;;;27.70;1.00;;;;;;5043494;28;20212;-75
2022/09/21 13:10:13;;;;;;;2.80;1.13;;;30.90;1.00;;;;;;5045744;28;20283;-77
2022/09/21 13:12:42;;;;;;;2.20;1.20;;;32.90;1.00;;;;;;5049238;28;20251;-75
2022/09/21 13:15:24;;;;;;;2.90;1.27;;;34.00;1.00;;;;;;5051974;28;20663;-75
2022/09/21 13:18:17;;;;;;;2.75;1.20;;;34.50;1.00;;;;;;5040180;28;20270;-75
2022/09/21 13:20:43;;;;;;;5.70;1.35;;;35.20;1.00;;;;;;5048908;28;20172;-75
2022/09/21 13:23:25;;;;;;;3.30;1.10;;;35.20;1.00;;;;;;5039820;28;20176;-75
2022/09/21 13:26:12;;;;;;;2.80;1.20;;;36.10;1.00;;;;;;5041920;28;20608;-75
2022/09/21 13:28:53;;;;;;;3.63;1.20;;;37.00;1.00;;;;;;5044862;28;20250;-76
2022/09/21 13:31:46;;;;;;;3.15;1.00;;;37.10;1.00;;;;;;5044215;28;20422;-75
2022/09/21 13:34:14;;;;;;;2.67;1.10;;;36.60;1.00;;;;;;5043417;28;20243;-76